sensor_id;sensor_type;location;lat;lon;timestamp;P1;durP1;ratioP1;P2;durP2;ratioP2
54897;SDS011;40800;52.704;6.398;2024-02-14T00:00:05;20.20;;;18.48;;
54897;SDS011;40800;52.704;6.398;2024-02-14T00:02:35;20.65;;;18.92;;
54897;SDS011;40800;52.704;6.398;2024-02-14T00:05:02;20.15;;;18.65;;
54897;SDS011;40800;52.704;6.398;2024-02-14T00:07:28;21.23;;;19.60;;
54897;SDS011;40800;52.704;6.398;2024-02-14T00:09:54;20.63;;;19.13;;
54897;SDS011;40800;52.704;6.398;2024-02-14T00:12:19;19.98;;;18.42;;
54897;SDS011;40800;52.704;6.398;2024-02-14T00:14:45;21.15;;;19.63;;
54897;SDS011;40800;52.704;6.398;2024-02-14T00:17:11;21.52;;;19.70;;
54897;SDS011;40800;52.704;6.398;2024-02-14T00:19:37;21.63;;;19.92;;
54897;SDS011;40800;52.704;6.398;2024-02-14T00:22:03;21.80;;;20.05;;
54897;SDS011;40800;52.704;6.398;2024-02-14T00:24:28;21.25;;;19.58;;
54897;SDS011;40800;52.704;6.398;2024-02-14T00:26:54;21.60;;;19.85;;
54897;SDS011;40800;52.704;6.398;2024-02-14T00:31:48;20.77;;;19.38;;
54897;SDS011;40800;52.704;6.398;2024-02-14T00:34:13;21.88;;;20.15;;
54897;SDS011;40800;52.704;6.398;2024-02-14T00:36:39;21.63;;;19.98;;
54897;SDS011;40800;52.704;6.398;2024-02-14T00:39:04;21.73;;;19.98;;
54897;SDS011;40800;52.704;6.398;2024-02-14T00:41:34;21.90;;;20.20;;
54897;SDS011;40800;52.704;6.398;2024-02-14T00:44:00;23.35;;;21.42;;
54897;SDS011;40800;52.704;6.398;2024-02-14T00:46:28;21.90;;;20.20;;
54897;SDS011;40800;52.704;6.398;2024-02-14T00:48:54;21.77;;;20.17;;
54897;SDS011;40800;52.704;6.398;2024-02-14T00:51:19;23.05;;;21.00;;
54897;SDS011;40800;52.704;6.398;2024-02-14T00:53:46;22.27;;;20.52;;
54897;SDS011;40800;52.704;6.398;2024-02-14T00:56:11;22.35;;;20.67;;
54897;SDS011;40800;52.704;6.398;2024-02-14T00:58:37;21.52;;;19.92;;
54897;SDS011;40800;52.704;6.398;2024-02-14T01:01:04;22.50;;;20.90;;
54897;SDS011;40800;52.704;6.398;2024-02-14T01:03:30;21.90;;;20.20;;
54897;SDS011;40800;52.704;6.398;2024-02-14T01:05:56;21.20;;;19.67;;
54897;SDS011;40800;52.704;6.398;2024-02-14T01:08:21;20.40;;;18.98;;
54897;SDS011;40800;52.704;6.398;2024-02-14T01:10:47;22.17;;;20.33;;
54897;SDS011;40800;52.704;6.398;2024-02-14T01:13:17;20.85;;;19.45;;
54897;SDS011;40800;52.704;6.398;2024-02-14T01:18:09;20.92;;;19.52;;
54897;SDS011;40800;52.704;6.398;2024-02-14T01:20:35;22.63;;;21.13;;
54897;SDS011;40800;52.704;6.398;2024-02-14T01:23:00;20.38;;;18.95;;
54897;SDS011;40800;52.704;6.398;2024-02-14T01:25:26;20.08;;;18.65;;
54897;SDS011;40800;52.704;6.398;2024-02-14T01:27:52;21.27;;;19.67;;
54897;SDS011;40800;52.704;6.398;2024-02-14T01:30:18;21.08;;;19.58;;
54897;SDS011;40800;52.704;6.398;2024-02-14T01:32:44;21.17;;;19.30;;
54897;SDS011;40800;52.704;6.398;2024-02-14T01:35:09;20.05;;;18.70;;
54897;SDS011;40800;52.704;6.398;2024-02-14T01:37:35;20.80;;;19.38;;
54897;SDS011;40800;52.704;6.398;2024-02-14T01:40:01;19.77;;;18.38;;
54897;SDS011;40800;52.704;6.398;2024-02-14T01:42:26;19.45;;;18.15;;
54897;SDS011;40800;52.704;6.398;2024-02-14T01:44:52;19.50;;;18.30;;
54897;SDS011;40800;52.704;6.398;2024-02-14T01:49:45;19.27;;;17.98;;
54897;SDS011;40800;52.704;6.398;2024-02-14T01:52:12;19.98;;;18.58;;
54897;SDS011;40800;52.704;6.398;2024-02-14T01:54:38;20.05;;;18.75;;
54897;SDS011;40800;52.704;6.398;2024-02-14T01:57:05;19.55;;;18.25;;
54897;SDS011;40800;52.704;6.398;2024-02-14T01:59:31;20.58;;;19.25;;
54897;SDS011;40800;52.704;6.398;2024-02-14T02:01:59;18.63;;;17.42;;
54897;SDS011;40800;52.704;6.398;2024-02-14T02:04:25;18.77;;;17.50;;
54897;SDS011;40800;52.704;6.398;2024-02-14T02:06:51;18.45;;;17.35;;
54897;SDS011;40800;52.704;6.398;2024-02-14T02:09:21;20.00;;;18.70;;
54897;SDS011;40800;52.704;6.398;2024-02-14T02:11:51;19.50;;;18.30;;
54897;SDS011;40800;52.704;6.398;2024-02-14T02:14:21;18.70;;;17.50;;
54897;SDS011;40800;52.704;6.398;2024-02-14T02:16:47;19.95;;;18.65;;
54897;SDS011;40800;52.704;6.398;2024-02-14T02:19:13;18.90;;;17.70;;
54897;SDS011;40800;52.704;6.398;2024-02-14T02:21:41;18.83;;;17.63;;
54897;SDS011;40800;52.704;6.398;2024-02-14T02:24:08;18.75;;;17.55;;
54897;SDS011;40800;52.704;6.398;2024-02-14T02:26:33;18.75;;;17.45;;
54897;SDS011;40800;52.704;6.398;2024-02-14T02:28:59;18.98;;;17.80;;
54897;SDS011;40800;52.704;6.398;2024-02-14T02:31:24;18.95;;;17.75;;
54897;SDS011;40800;52.704;6.398;2024-02-14T02:33:51;17.30;;;16.23;;
54897;SDS011;40800;52.704;6.398;2024-02-14T02:36:17;18.80;;;17.60;;
54897;SDS011;40800;52.704;6.398;2024-02-14T02:38:43;18.90;;;17.70;;
54897;SDS011;40800;52.704;6.398;2024-02-14T02:41:09;18.50;;;17.30;;
54897;SDS011;40800;52.704;6.398;2024-02-14T02:43:35;18.95;;;17.75;;
54897;SDS011;40800;52.704;6.398;2024-02-14T02:46:00;19.42;;;18.17;;
54897;SDS011;40800;52.704;6.398;2024-02-14T02:48:26;19.50;;;18.20;;
54897;SDS011;40800;52.704;6.398;2024-02-14T02:50:52;20.58;;;19.23;;
54897;SDS011;40800;52.704;6.398;2024-02-14T02:53:18;18.75;;;17.55;;
54897;SDS011;40800;52.704;6.398;2024-02-14T02:55:44;19.33;;;18.03;;
54897;SDS011;40800;52.704;6.398;2024-02-14T02:58:10;18.85;;;17.55;;
54897;SDS011;40800;52.704;6.398;2024-02-14T03:00:36;19.60;;;18.20;;
54897;SDS011;40800;52.704;6.398;2024-02-14T03:03:02;19.48;;;18.08;;
54897;SDS011;40800;52.704;6.398;2024-02-14T03:05:29;19.40;;;18.10;;
54897;SDS011;40800;52.704;6.398;2024-02-14T03:07:58;19.48;;;18.17;;
54897;SDS011;40800;52.704;6.398;2024-02-14T03:10:24;19.73;;;18.42;;
54897;SDS011;40800;52.704;6.398;2024-02-14T03:12:50;20.47;;;19.07;;
54897;SDS011;40800;52.704;6.398;2024-02-14T03:15:16;20.02;;;18.63;;
54897;SDS011;40800;52.704;6.398;2024-02-14T03:17:43;20.30;;;18.88;;
54897;SDS011;40800;52.704;6.398;2024-02-14T03:20:10;20.08;;;18.70;;
54897;SDS011;40800;52.704;6.398;2024-02-14T03:22:38;19.95;;;18.55;;
54897;SDS011;40800;52.704;6.398;2024-02-14T03:25:11;20.35;;;18.88;;
54897;SDS011;40800;52.704;6.398;2024-02-14T03:27:38;20.27;;;18.77;;
54897;SDS011;40800;52.704;6.398;2024-02-14T03:30:05;21.38;;;19.88;;
54897;SDS011;40800;52.704;6.398;2024-02-14T03:32:31;21.45;;;19.80;;
54897;SDS011;40800;52.704;6.398;2024-02-14T03:34:57;20.20;;;18.80;;
54897;SDS011;40800;52.704;6.398;2024-02-14T03:37:23;20.02;;;18.55;;
54897;SDS011;40800;52.704;6.398;2024-02-14T03:39:49;21.38;;;19.80;;
54897;SDS011;40800;52.704;6.398;2024-02-14T03:42:15;20.75;;;19.25;;
54897;SDS011;40800;52.704;6.398;2024-02-14T03:44:41;20.25;;;18.85;;
54897;SDS011;40800;52.704;6.398;2024-02-14T03:47:08;20.63;;;19.20;;
54897;SDS011;40800;52.704;6.398;2024-02-14T03:49:34;20.70;;;19.13;;
54897;SDS011;40800;52.704;6.398;2024-02-14T03:52:00;20.80;;;19.30;;
54897;SDS011;40800;52.704;6.398;2024-02-14T03:54:26;21.58;;;19.98;;
54897;SDS011;40800;52.704;6.398;2024-02-14T03:56:53;21.23;;;19.73;;
54897;SDS011;40800;52.704;6.398;2024-02-14T03:59:20;20.52;;;19.02;;
54897;SDS011;40800;52.704;6.398;2024-02-14T04:01:49;20.63;;;19.13;;
54897;SDS011;40800;52.704;6.398;2024-02-14T04:04:16;21.10;;;19.60;;
54897;SDS011;40800;52.704;6.398;2024-02-14T04:06:42;20.60;;;19.20;;
54897;SDS011;40800;52.704;6.398;2024-02-14T04:09:10;20.60;;;19.10;;
54897;SDS011;40800;52.704;6.398;2024-02-14T04:11:36;21.27;;;19.77;;
54897;SDS011;40800;52.704;6.398;2024-02-14T04:14:01;21.73;;;20.08;;
54897;SDS011;40800;52.704;6.398;2024-02-14T04:16:27;21.75;;;20.05;;
54897;SDS011;40800;52.704;6.398;2024-02-14T04:18:52;21.05;;;19.48;;
54897;SDS011;40800;52.704;6.398;2024-02-14T04:21:20;20.13;;;18.63;;
54897;SDS011;40800;52.704;6.398;2024-02-14T04:23:46;20.38;;;18.98;;
54897;SDS011;40800;52.704;6.398;2024-02-14T04:26:18;20.58;;;19.08;;
54897;SDS011;40800;52.704;6.398;2024-02-14T04:28:47;21.98;;;20.38;;
54897;SDS011;40800;52.704;6.398;2024-02-14T04:31:13;20.52;;;19.02;;
54897;SDS011;40800;52.704;6.398;2024-02-14T04:33:38;20.65;;;18.88;;
54897;SDS011;40800;52.704;6.398;2024-02-14T04:36:05;20.83;;;19.17;;
54897;SDS011;40800;52.704;6.398;2024-02-14T04:38:31;20.67;;;19.17;;
54897;SDS011;40800;52.704;6.398;2024-02-14T04:40:56;19.75;;;18.35;;
54897;SDS011;40800;52.704;6.398;2024-02-14T04:43:23;21.58;;;20.08;;
54897;SDS011;40800;52.704;6.398;2024-02-14T04:45:51;19.70;;;18.30;;
54897;SDS011;40800;52.704;6.398;2024-02-14T04:48:17;21.25;;;19.75;;
54897;SDS011;40800;52.704;6.398;2024-02-14T04:50:43;21.10;;;19.60;;
54897;SDS011;40800;52.704;6.398;2024-02-14T04:53:08;21.05;;;19.55;;
54897;SDS011;40800;52.704;6.398;2024-02-14T04:55:34;20.95;;;19.48;;
54897;SDS011;40800;52.704;6.398;2024-02-14T04:58:00;21.58;;;20.00;;
54897;SDS011;40800;52.704;6.398;2024-02-14T05:00:25;21.33;;;19.73;;
54897;SDS011;40800;52.704;6.398;2024-02-14T05:02:52;20.88;;;19.27;;
54897;SDS011;40800;52.704;6.398;2024-02-14T05:05:18;21.42;;;19.92;;
54897;SDS011;40800;52.704;6.398;2024-02-14T05:07:45;22.23;;;20.63;;
54897;SDS011;40800;52.704;6.398;2024-02-14T05:10:11;22.20;;;20.60;;
54897;SDS011;40800;52.704;6.398;2024-02-14T05:12:37;22.55;;;20.95;;
54897;SDS011;40800;52.704;6.398;2024-02-14T05:15:03;23.00;;;21.40;;
54897;SDS011;40800;52.704;6.398;2024-02-14T05:17:29;23.33;;;21.58;;
54897;SDS011;40800;52.704;6.398;2024-02-14T05:19:55;22.17;;;20.67;;
54897;SDS011;40800;52.704;6.398;2024-02-14T05:22:22;22.73;;;21.02;;
54897;SDS011;40800;52.704;6.398;2024-02-14T05:24:48;23.45;;;21.75;;
54897;SDS011;40800;52.704;6.398;2024-02-14T05:27:13;24.15;;;22.25;;
54897;SDS011;40800;52.704;6.398;2024-02-14T05:29:39;23.23;;;21.42;;
54897;SDS011;40800;52.704;6.398;2024-02-14T05:32:04;23.38;;;21.67;;
54897;SDS011;40800;52.704;6.398;2024-02-14T05:34:30;24.00;;;22.20;;
54897;SDS011;40800;52.704;6.398;2024-02-14T05:36:56;24.75;;;22.83;;
54897;SDS011;40800;52.704;6.398;2024-02-14T05:39:22;24.80;;;22.90;;
54897;SDS011;40800;52.704;6.398;2024-02-14T05:41:47;24.15;;;22.35;;
54897;SDS011;40800;52.704;6.398;2024-02-14T05:44:14;25.17;;;23.27;;
54897;SDS011;40800;52.704;6.398;2024-02-14T05:46:39;25.70;;;23.70;;
54897;SDS011;40800;52.704;6.398;2024-02-14T05:49:06;26.95;;;24.75;;
54897;SDS011;40800;52.704;6.398;2024-02-14T05:51:31;26.45;;;24.35;;
54897;SDS011;40800;52.704;6.398;2024-02-14T05:53:57;28.08;;;25.88;;
54897;SDS011;40800;52.704;6.398;2024-02-14T05:56:23;27.08;;;24.83;;
54897;SDS011;40800;52.704;6.398;2024-02-14T05:58:49;27.05;;;24.77;;
54897;SDS011;40800;52.704;6.398;2024-02-14T06:01:14;28.55;;;26.10;;
54897;SDS011;40800;52.704;6.398;2024-02-14T06:03:43;28.55;;;26.15;;
54897;SDS011;40800;52.704;6.398;2024-02-14T06:06:09;28.25;;;25.85;;
54897;SDS011;40800;52.704;6.398;2024-02-14T06:08:34;27.70;;;25.40;;
54897;SDS011;40800;52.704;6.398;2024-02-14T06:11:00;29.52;;;27.02;;
54897;SDS011;40800;52.704;6.398;2024-02-14T06:13:26;31.67;;;28.77;;
54897;SDS011;40800;52.704;6.398;2024-02-14T06:15:51;31.00;;;28.03;;
54897;SDS011;40800;52.704;6.398;2024-02-14T06:18:17;31.33;;;28.52;;
54897;SDS011;40800;52.704;6.398;2024-02-14T06:20:43;31.50;;;28.60;;
54897;SDS011;40800;52.704;6.398;2024-02-14T06:23:08;33.83;;;30.27;;
54897;SDS011;40800;52.704;6.398;2024-02-14T06:25:34;34.03;;;30.70;;
54897;SDS011;40800;52.704;6.398;2024-02-14T06:27:59;33.90;;;30.60;;
54897;SDS011;40800;52.704;6.398;2024-02-14T06:30:25;33.83;;;30.33;;
54897;SDS011;40800;52.704;6.398;2024-02-14T06:32:50;33.90;;;30.65;;
54897;SDS011;40800;52.704;6.398;2024-02-14T06:35:16;35.25;;;31.67;;
54897;SDS011;40800;52.704;6.398;2024-02-14T06:37:44;36.25;;;32.35;;
54897;SDS011;40800;52.704;6.398;2024-02-14T06:40:10;36.08;;;32.33;;
54897;SDS011;40800;52.704;6.398;2024-02-14T06:42:36;35.87;;;32.47;;
54897;SDS011;40800;52.704;6.398;2024-02-14T06:45:02;35.90;;;32.30;;
54897;SDS011;40800;52.704;6.398;2024-02-14T06:47:28;36.63;;;32.92;;
54897;SDS011;40800;52.704;6.398;2024-02-14T06:49:58;34.55;;;30.92;;
54897;SDS011;40800;52.704;6.398;2024-02-14T06:52:23;35.50;;;31.90;;
54897;SDS011;40800;52.704;6.398;2024-02-14T06:54:49;35.90;;;32.33;;
54897;SDS011;40800;52.704;6.398;2024-02-14T06:57:15;35.30;;;31.85;;
54897;SDS011;40800;52.704;6.398;2024-02-14T06:59:41;36.13;;;32.53;;
54897;SDS011;40800;52.704;6.398;2024-02-14T07:02:07;35.53;;;32.08;;
54897;SDS011;40800;52.704;6.398;2024-02-14T07:04:33;34.88;;;31.33;;
54897;SDS011;40800;52.704;6.398;2024-02-14T07:06:58;34.55;;;31.20;;
54897;SDS011;40800;52.704;6.398;2024-02-14T07:09:25;34.90;;;31.33;;
54897;SDS011;40800;52.704;6.398;2024-02-14T07:11:51;35.45;;;31.65;;
54897;SDS011;40800;52.704;6.398;2024-02-14T07:14:19;34.13;;;30.63;;
54897;SDS011;40800;52.704;6.398;2024-02-14T07:16:44;36.10;;;32.42;;
54897;SDS011;40800;52.704;6.398;2024-02-14T07:19:10;37.67;;;33.70;;
54897;SDS011;40800;52.704;6.398;2024-02-14T07:21:35;37.63;;;33.75;;
54897;SDS011;40800;52.704;6.398;2024-02-14T07:26:29;39.60;;;35.50;;
54897;SDS011;40800;52.704;6.398;2024-02-14T07:28:54;39.35;;;35.30;;
54897;SDS011;40800;52.704;6.398;2024-02-14T07:31:20;43.50;;;35.25;;
54897;SDS011;40800;52.704;6.398;2024-02-14T07:33:45;45.42;;;37.25;;
54897;SDS011;40800;52.704;6.398;2024-02-14T07:36:12;40.83;;;35.97;;
54897;SDS011;40800;52.704;6.398;2024-02-14T07:38:38;43.08;;;37.25;;
54897;SDS011;40800;52.704;6.398;2024-02-14T07:41:04;43.53;;;37.53;;
54897;SDS011;40800;52.704;6.398;2024-02-14T07:43:29;45.20;;;37.30;;
54897;SDS011;40800;52.704;6.398;2024-02-14T07:45:55;51.70;;;40.30;;
54897;SDS011;40800;52.704;6.398;2024-02-14T07:48:21;47.42;;;38.05;;
54897;SDS011;40800;52.704;6.398;2024-02-14T07:50:47;47.33;;;39.25;;
54897;SDS011;40800;52.704;6.398;2024-02-14T07:53:13;45.72;;;38.60;;
54897;SDS011;40800;52.704;6.398;2024-02-14T07:55:38;42.92;;;38.17;;
54897;SDS011;40800;52.704;6.398;2024-02-14T07:58:05;45.87;;;37.90;;
54897;SDS011;40800;52.704;6.398;2024-02-14T08:00:30;42.85;;;38.15;;
54897;SDS011;40800;52.704;6.398;2024-02-14T08:02:56;45.88;;;37.03;;
54897;SDS011;40800;52.704;6.398;2024-02-14T08:05:21;46.72;;;37.92;;
54897;SDS011;40800;52.704;6.398;2024-02-14T08:07:47;41.50;;;34.60;;
54897;SDS011;40800;52.704;6.398;2024-02-14T08:10:13;41.83;;;35.38;;
54897;SDS011;40800;52.704;6.398;2024-02-14T08:12:38;42.05;;;35.00;;
54897;SDS011;40800;52.704;6.398;2024-02-14T08:15:04;44.75;;;36.95;;
54897;SDS011;40800;52.704;6.398;2024-02-14T08:17:31;43.00;;;37.00;;
54897;SDS011;40800;52.704;6.398;2024-02-14T08:19:58;43.45;;;35.53;;
54897;SDS011;40800;52.704;6.398;2024-02-14T08:22:24;48.88;;;38.30;;
54897;SDS011;40800;52.704;6.398;2024-02-14T08:24:49;43.05;;;37.42;;
54897;SDS011;40800;52.704;6.398;2024-02-14T08:27:15;40.85;;;35.38;;
54897;SDS011;40800;52.704;6.398;2024-02-14T08:29:40;42.50;;;35.78;;
54897;SDS011;40800;52.704;6.398;2024-02-14T08:32:06;38.72;;;33.90;;
54897;SDS011;40800;52.704;6.398;2024-02-14T08:34:31;36.92;;;32.35;;
54897;SDS011;40800;52.704;6.398;2024-02-14T08:36:57;36.63;;;32.92;;
54897;SDS011;40800;52.704;6.398;2024-02-14T08:39:23;34.85;;;31.35;;
54897;SDS011;40800;52.704;6.398;2024-02-14T08:41:48;35.28;;;31.63;;
54897;SDS011;40800;52.704;6.398;2024-02-14T08:44:15;34.60;;;30.92;;
54897;SDS011;40800;52.704;6.398;2024-02-14T08:46:40;34.95;;;31.38;;
54897;SDS011;40800;52.704;6.398;2024-02-14T08:49:07;35.22;;;31.65;;
54897;SDS011;40800;52.704;6.398;2024-02-14T08:51:36;34.78;;;31.45;;
54897;SDS011;40800;52.704;6.398;2024-02-14T08:54:03;34.97;;;31.58;;
54897;SDS011;40800;52.704;6.398;2024-02-14T08:56:31;35.80;;;32.00;;
54897;SDS011;40800;52.704;6.398;2024-02-14T09:01:27;34.80;;;31.23;;
54897;SDS011;40800;52.704;6.398;2024-02-14T09:03:53;38.05;;;34.28;;
54897;SDS011;40800;52.704;6.398;2024-02-14T09:06:19;40.30;;;36.10;;
54897;SDS011;40800;52.704;6.398;2024-02-14T09:08:46;39.30;;;35.20;;
54897;SDS011;40800;52.704;6.398;2024-02-14T09:11:12;41.33;;;35.53;;
54897;SDS011;40800;52.704;6.398;2024-02-14T09:13:38;41.15;;;35.30;;
54897;SDS011;40800;52.704;6.398;2024-02-14T09:16:06;42.13;;;37.53;;
54897;SDS011;40800;52.704;6.398;2024-02-14T09:18:32;44.08;;;36.78;;
54897;SDS011;40800;52.704;6.398;2024-02-14T09:20:58;44.17;;;37.67;;
54897;SDS011;40800;52.704;6.398;2024-02-14T09:23:24;42.95;;;36.13;;
54897;SDS011;40800;52.704;6.398;2024-02-14T09:25:49;42.67;;;36.63;;
54897;SDS011;40800;52.704;6.398;2024-02-14T09:28:16;40.70;;;35.63;;
54897;SDS011;40800;52.704;6.398;2024-02-14T09:30:41;44.67;;;37.95;;
54897;SDS011;40800;52.704;6.398;2024-02-14T09:33:07;40.83;;;36.50;;
54897;SDS011;40800;52.704;6.398;2024-02-14T09:35:33;46.90;;;38.47;;
54897;SDS011;40800;52.704;6.398;2024-02-14T09:38:00;44.10;;;37.65;;
54897;SDS011;40800;52.704;6.398;2024-02-14T09:40:25;47.58;;;38.50;;
54897;SDS011;40800;52.704;6.398;2024-02-14T09:42:55;51.03;;;39.55;;
54897;SDS011;40800;52.704;6.398;2024-02-14T09:45:25;49.85;;;40.22;;
54897;SDS011;40800;52.704;6.398;2024-02-14T09:47:52;46.67;;;39.70;;
54897;SDS011;40800;52.704;6.398;2024-02-14T09:50:21;43.78;;;38.97;;
54897;SDS011;40800;52.704;6.398;2024-02-14T09:52:49;44.53;;;39.65;;
54897;SDS011;40800;52.704;6.398;2024-02-14T09:55:15;43.60;;;37.40;;
54897;SDS011;40800;52.704;6.398;2024-02-14T09:57:42;43.50;;;38.22;;
54897;SDS011;40800;52.704;6.398;2024-02-14T10:00:11;44.10;;;38.38;;
54897;SDS011;40800;52.704;6.398;2024-02-14T10:02:40;44.20;;;37.42;;
54897;SDS011;40800;52.704;6.398;2024-02-14T10:05:06;39.28;;;34.78;;
54897;SDS011;40800;52.704;6.398;2024-02-14T10:07:39;42.03;;;33.53;;
54897;SDS011;40800;52.704;6.398;2024-02-14T10:10:06;38.20;;;34.05;;
54897;SDS011;40800;52.704;6.398;2024-02-14T10:12:32;38.08;;;34.05;;
54897;SDS011;40800;52.704;6.398;2024-02-14T10:14:57;37.53;;;33.58;;
54897;SDS011;40800;52.704;6.398;2024-02-14T10:17:23;36.33;;;32.42;;
54897;SDS011;40800;52.704;6.398;2024-02-14T10:19:58;37.25;;;33.15;;
54897;SDS011;40800;52.704;6.398;2024-02-14T10:22:25;38.35;;;34.20;;
54897;SDS011;40800;52.704;6.398;2024-02-14T10:24:57;38.67;;;34.42;;
54897;SDS011;40800;52.704;6.398;2024-02-14T10:27:23;38.40;;;34.22;;
54897;SDS011;40800;52.704;6.398;2024-02-14T10:32:15;38.63;;;34.53;;
54897;SDS011;40800;52.704;6.398;2024-02-14T10:34:41;39.25;;;34.92;;
54897;SDS011;40800;52.704;6.398;2024-02-14T10:37:11;38.03;;;33.90;;
54897;SDS011;40800;52.704;6.398;2024-02-14T10:39:41;40.38;;;35.97;;
54897;SDS011;40800;52.704;6.398;2024-02-14T10:42:08;38.70;;;34.50;;
54897;SDS011;40800;52.704;6.398;2024-02-14T10:44:34;36.97;;;33.13;;
54897;SDS011;40800;52.704;6.398;2024-02-14T10:47:00;37.67;;;33.97;;
54897;SDS011;40800;52.704;6.398;2024-02-14T10:49:29;36.78;;;33.00;;
54897;SDS011;40800;52.704;6.398;2024-02-14T10:51:56;35.50;;;31.83;;
54897;SDS011;40800;52.704;6.398;2024-02-14T10:54:27;32.83;;;29.67;;
54897;SDS011;40800;52.704;6.398;2024-02-14T10:56:53;33.42;;;30.23;;
54897;SDS011;40800;52.704;6.398;2024-02-14T10:59:22;32.17;;;29.15;;
54897;SDS011;40800;52.704;6.398;2024-02-14T11:01:49;31.05;;;28.23;;
54897;SDS011;40800;52.704;6.398;2024-02-14T11:04:16;31.90;;;29.20;;
54897;SDS011;40800;52.704;6.398;2024-02-14T11:06:46;30.67;;;27.83;;
54897;SDS011;40800;52.704;6.398;2024-02-14T11:09:13;29.65;;;27.13;;
54897;SDS011;40800;52.704;6.398;2024-02-14T11:11:40;29.85;;;27.05;;
54897;SDS011;40800;52.704;6.398;2024-02-14T11:14:08;29.13;;;26.63;;
54897;SDS011;40800;52.704;6.398;2024-02-14T11:16:34;28.48;;;26.02;;
54897;SDS011;40800;52.704;6.398;2024-02-14T11:19:05;28.45;;;26.15;;
54897;SDS011;40800;52.704;6.398;2024-02-14T11:21:40;28.05;;;25.90;;
54897;SDS011;40800;52.704;6.398;2024-02-14T11:24:13;28.00;;;25.63;;
54897;SDS011;40800;52.704;6.398;2024-02-14T11:26:48;28.20;;;26.00;;
54897;SDS011;40800;52.704;6.398;2024-02-14T11:29:18;26.60;;;24.60;;
54897;SDS011;40800;52.704;6.398;2024-02-14T11:31:45;26.38;;;24.38;;
54897;SDS011;40800;52.704;6.398;2024-02-14T11:34:11;27.55;;;25.45;;
54897;SDS011;40800;52.704;6.398;2024-02-14T11:36:38;28.08;;;26.00;;
54897;SDS011;40800;52.704;6.398;2024-02-14T11:39:06;28.00;;;25.95;;
54897;SDS011;40800;52.704;6.398;2024-02-14T11:41:32;27.75;;;25.75;;
54897;SDS011;40800;52.704;6.398;2024-02-14T11:44:02;27.15;;;25.33;;
54897;SDS011;40800;52.704;6.398;2024-02-14T11:46:32;27.05;;;25.25;;
54897;SDS011;40800;52.704;6.398;2024-02-14T11:48:59;26.70;;;24.88;;
54897;SDS011;40800;52.704;6.398;2024-02-14T11:51:29;26.83;;;25.02;;
54897;SDS011;40800;52.704;6.398;2024-02-14T11:53:59;26.67;;;24.85;;
54897;SDS011;40800;52.704;6.398;2024-02-14T11:56:39;26.17;;;24.38;;
54897;SDS011;40800;52.704;6.398;2024-02-14T11:59:07;26.27;;;24.27;;
54897;SDS011;40800;52.704;6.398;2024-02-14T12:01:35;25.20;;;23.48;;
54897;SDS011;40800;52.704;6.398;2024-02-14T12:04:02;24.80;;;22.98;;
54897;SDS011;40800;52.704;6.398;2024-02-14T12:06:32;25.35;;;23.45;;
54897;SDS011;40800;52.704;6.398;2024-02-14T12:09:02;26.08;;;24.08;;
54897;SDS011;40800;52.704;6.398;2024-02-14T12:11:33;26.65;;;24.55;;
54897;SDS011;40800;52.704;6.398;2024-02-14T12:14:02;27.52;;;25.27;;
54897;SDS011;40800;52.704;6.398;2024-02-14T12:16:28;27.75;;;25.65;;
54897;SDS011;40800;52.704;6.398;2024-02-14T12:19:07;25.77;;;23.73;;
54897;SDS011;40800;52.704;6.398;2024-02-14T12:21:38;26.13;;;24.13;;
54897;SDS011;40800;52.704;6.398;2024-02-14T12:26:30;26.48;;;24.33;;
54897;SDS011;40800;52.704;6.398;2024-02-14T12:28:57;27.92;;;25.70;;
54897;SDS011;40800;52.704;6.398;2024-02-14T12:31:23;28.50;;;26.20;;
54897;SDS011;40800;52.704;6.398;2024-02-14T12:33:49;29.63;;;27.20;;
54897;SDS011;40800;52.704;6.398;2024-02-14T12:36:14;28.05;;;25.73;;
54897;SDS011;40800;52.704;6.398;2024-02-14T12:38:40;28.58;;;26.08;;
54897;SDS011;40800;52.704;6.398;2024-02-14T12:41:06;29.20;;;26.60;;
54897;SDS011;40800;52.704;6.398;2024-02-14T12:43:33;29.15;;;26.52;;
54897;SDS011;40800;52.704;6.398;2024-02-14T12:45:58;28.05;;;25.60;;
54897;SDS011;40800;52.704;6.398;2024-02-14T12:48:24;28.38;;;26.20;;
54897;SDS011;40800;52.704;6.398;2024-02-14T12:50:53;27.67;;;25.38;;
54897;SDS011;40800;52.704;6.398;2024-02-14T12:53:19;28.58;;;26.33;;
54897;SDS011;40800;52.704;6.398;2024-02-14T12:55:46;27.48;;;25.38;;
54897;SDS011;40800;52.704;6.398;2024-02-14T12:58:12;27.37;;;25.00;;
54897;SDS011;40800;52.704;6.398;2024-02-14T13:00:37;26.25;;;24.08;;
54897;SDS011;40800;52.704;6.398;2024-02-14T13:03:03;26.98;;;24.73;;
54897;SDS011;40800;52.704;6.398;2024-02-14T13:05:29;26.13;;;23.97;;
54897;SDS011;40800;52.704;6.398;2024-02-14T13:07:55;25.95;;;23.88;;
54897;SDS011;40800;52.704;6.398;2024-02-14T13:10:21;24.55;;;22.58;;
54897;SDS011;40800;52.704;6.398;2024-02-14T13:12:47;24.55;;;22.52;;
54897;SDS011;40800;52.704;6.398;2024-02-14T13:15:13;24.63;;;22.65;;
54897;SDS011;40800;52.704;6.398;2024-02-14T13:17:38;24.95;;;22.85;;
54897;SDS011;40800;52.704;6.398;2024-02-14T13:20:04;25.77;;;23.58;;
54897;SDS011;40800;52.704;6.398;2024-02-14T13:22:33;23.45;;;21.55;;
54897;SDS011;40800;52.704;6.398;2024-02-14T13:24:59;23.90;;;21.90;;
54897;SDS011;40800;52.704;6.398;2024-02-14T13:27:28;23.83;;;21.83;;
54897;SDS011;40800;52.704;6.398;2024-02-14T13:29:53;24.25;;;22.35;;
54897;SDS011;40800;52.704;6.398;2024-02-14T13:32:19;24.05;;;22.08;;
54897;SDS011;40800;52.704;6.398;2024-02-14T13:34:45;24.17;;;22.17;;
54897;SDS011;40800;52.704;6.398;2024-02-14T13:37:10;24.00;;;22.08;;
54897;SDS011;40800;52.704;6.398;2024-02-14T13:39:36;24.98;;;22.85;;
54897;SDS011;40800;52.704;6.398;2024-02-14T13:42:02;25.38;;;23.35;;
54897;SDS011;40800;52.704;6.398;2024-02-14T13:44:27;25.80;;;23.73;;
54897;SDS011;40800;52.704;6.398;2024-02-14T13:46:53;25.30;;;23.20;;
54897;SDS011;40800;52.704;6.398;2024-02-14T13:49:19;25.42;;;23.30;;
54897;SDS011;40800;52.704;6.398;2024-02-14T13:51:51;25.40;;;23.17;;
54897;SDS011;40800;52.704;6.398;2024-02-14T13:54:17;26.67;;;24.15;;
54897;SDS011;40800;52.704;6.398;2024-02-14T13:56:44;26.33;;;24.13;;
54897;SDS011;40800;52.704;6.398;2024-02-14T13:59:10;24.60;;;22.60;;
54897;SDS011;40800;52.704;6.398;2024-02-14T14:01:36;24.83;;;22.73;;
54897;SDS011;40800;52.704;6.398;2024-02-14T14:04:02;24.65;;;22.55;;
54897;SDS011;40800;52.704;6.398;2024-02-14T14:06:29;25.23;;;22.98;;
54897;SDS011;40800;52.704;6.398;2024-02-14T14:08:54;24.17;;;22.17;;
54897;SDS011;40800;52.704;6.398;2024-02-14T14:11:20;23.40;;;21.50;;
54897;SDS011;40800;52.704;6.398;2024-02-14T14:13:46;24.52;;;22.33;;
54897;SDS011;40800;52.704;6.398;2024-02-14T14:16:11;23.63;;;21.73;;
54897;SDS011;40800;52.704;6.398;2024-02-14T14:18:37;23.05;;;21.15;;
54897;SDS011;40800;52.704;6.398;2024-02-14T14:21:04;23.52;;;21.55;;
54897;SDS011;40800;52.704;6.398;2024-02-14T14:23:30;22.17;;;20.35;;
54897;SDS011;40800;52.704;6.398;2024-02-14T14:25:55;23.73;;;21.73;;
54897;SDS011;40800;52.704;6.398;2024-02-14T14:28:21;23.27;;;21.17;;
54897;SDS011;40800;52.704;6.398;2024-02-14T14:30:53;22.63;;;20.85;;
54897;SDS011;40800;52.704;6.398;2024-02-14T14:33:19;21.33;;;19.63;;